createdAt,value
2022-10-01T00:16:45.392Z,707
2022-10-01T00:36:45.392Z,703
2022-10-01T00:56:53.450Z,701
2022-10-01T01:16:45.508Z,703
2022-10-01T01:36:45.544Z,708
2022-10-01T01:56:45.611Z,708
2022-10-01T02:16:45.661Z,721
2022-10-01T02:36:45.705Z,735
2022-10-01T02:56:48.758Z,744
2022-10-01T03:36:53.859Z,761
2022-10-01T04:16:45.967Z,781
2022-10-01T04:36:54.028Z,865
2022-10-01T04:56:46.059Z,840
2022-10-01T05:16:46.133Z,803
2022-10-01T05:36:46.190Z,829
2022-10-01T06:36:54.333Z,883
2022-10-01T06:56:46.379Z,900
2022-10-01T07:16:46.470Z,869
2022-10-01T07:56:54.550Z,850
2022-10-01T08:16:46.624Z,873
2022-10-01T08:36:46.622Z,884
2022-10-01T08:56:46.676Z,885
2022-10-01T09:16:54.800Z,873
2022-10-01T09:36:46.784Z,876
2022-10-01T09:56:54.835Z,874
2022-10-01T11:17:03.020Z,873
2022-10-01T11:36:47.079Z,863
2022-10-01T11:56:47.118Z,855
2022-10-01T12:16:47.161Z,849
2022-10-01T12:37:03.210Z,849
2022-10-01T12:56:55.276Z,844
2022-10-01T13:16:47.287Z,847
2022-10-01T13:56:47.386Z,851
2022-10-01T14:16:47.429Z,849
2022-10-01T14:37:03.518Z,842
2022-10-01T14:56:55.528Z,842
2022-10-01T15:16:55.629Z,837
2022-10-01T15:36:47.624Z,837
2022-10-01T15:56:47.662Z,830
2022-10-01T16:16:55.716Z,825
2022-10-01T16:36:55.784Z,820
2022-10-01T16:56:47.802Z,815
2022-10-01T17:16:47.947Z,810
2022-10-01T17:36:47.903Z,803
2022-10-01T17:56:55.991Z,806
2022-10-01T18:36:56.068Z,810
2022-10-01T18:56:48.106Z,808
2022-10-01T19:16:48.262Z,808
2022-10-01T19:36:48.198Z,808
2022-10-01T19:56:48.257Z,807
2022-10-01T20:56:56.412Z,819
2022-10-01T21:16:48.498Z,826
2022-10-01T21:36:48.499Z,825
2022-10-01T21:56:48.564Z,822
2022-10-01T22:16:48.697Z,820
2022-10-01T22:36:48.657Z,815
2022-10-01T22:56:48.705Z,815
2022-10-01T23:16:48.790Z,810
2022-10-01T23:36:48.828Z,807
2022-10-01T23:56:48.873Z,807
